地図

経路データ

SID SEASON NUMBER BASIN SUBBASIN NAME ISO_TIME NATURE LAT LON WMO_WIND WMO_PRES WMO_AGENCY TRACK_TYPE DIST2LAND LANDFALL IFLAG USA_AGENCY USA_ATCF_ID USA_LAT USA_LON USA_RECORD USA_STATUS USA_WIND USA_PRES USA_SSHS USA_R34_NE USA_R34_SE USA_R34_SW USA_R34_NW USA_R50_NE USA_R50_SE USA_R50_SW USA_R50_NW USA_R64_NE USA_R64_SE USA_R64_SW USA_R64_NW USA_POCI USA_ROCI USA_RMW USA_EYE TOKYO_LAT TOKYO_LON TOKYO_GRADE TOKYO_WIND TOKYO_PRES TOKYO_R50_DIR TOKYO_R50_LONG TOKYO_R50_SHORT TOKYO_R30_DIR TOKYO_R30_LONG TOKYO_R30_SHORT TOKYO_LAND CMA_LAT CMA_LON CMA_CAT CMA_WIND CMA_PRES HKO_LAT HKO_LON HKO_CAT HKO_WIND HKO_PRES NEWDELHI_LAT NEWDELHI_LON NEWDELHI_GRADE NEWDELHI_WIND NEWDELHI_PRES NEWDELHI_CI NEWDELHI_DP NEWDELHI_POCI REUNION_LAT REUNION_LON REUNION_TYPE REUNION_WIND REUNION_PRES REUNION_TNUM REUNION_CI REUNION_RMW REUNION_R34_NE REUNION_R34_SE REUNION_R34_SW REUNION_R34_NW REUNION_R50_NE REUNION_R50_SE REUNION_R50_SW REUNION_R50_NW REUNION_R64_NE REUNION_R64_SE REUNION_R64_SW REUNION_R64_NW BOM_LAT BOM_LON BOM_TYPE BOM_WIND BOM_PRES BOM_TNUM BOM_CI BOM_RMW BOM_R34_NE BOM_R34_SE BOM_R34_SW BOM_R34_NW BOM_R50_NE BOM_R50_SE BOM_R50_SW BOM_R50_NW BOM_R64_NE BOM_R64_SE BOM_R64_SW BOM_R64_NW BOM_ROCI BOM_POCI BOM_EYE BOM_POS_METHOD BOM_PRES_METHOD NADI_LAT NADI_LON NADI_CAT NADI_WIND NADI_PRES WELLINGTON_LAT WELLINGTON_LON WELLINGTON_WIND WELLINGTON_PRES DS824_LAT DS824_LON DS824_STAGE DS824_WIND DS824_PRES TD9636_LAT TD9636_LON TD9636_STAGE TD9636_WIND TD9636_PRES TD9635_LAT TD9635_LON TD9635_WIND TD9635_PRES TD9635_ROCI NEUMANN_LAT NEUMANN_LON NEUMANN_CLASS NEUMANN_WIND NEUMANN_PRES MLC_LAT MLC_LON MLC_CLASS MLC_WIND MLC_PRES USA_GUST BOM_GUST BOM_GUST_PER REUNION_GUST REUNION_GUST_PER USA_SEAHGT USA_SEARAD_NE USA_SEARAD_SE USA_SEARAD_SW USA_SEARAD_NW STORM_SPEED STORM_DIR
2022301N12295 2022 79 NA CS LISA 2022-10-27 18:00:00 NR 11.6000 -64.8000 PROVISIONAL 129 129 O_____________ nhc_working_bt AL152022 11.6000 -64.8000 DB 15 -3 4 281
2022301N12295 2022 79 NA CS LISA 2022-10-27 21:00:00 NR 11.6375 -65.0000 PROVISIONAL 142 142 P_____________ AL152022 11.6375 -65.0000 DB 17 -3 4 284
2022301N12295 2022 79 NA CS LISA 2022-10-28 00:00:00 NR 11.7000 -65.2000 PROVISIONAL 151 144 O_____________ nhc_working_bt AL152022 11.7000 -65.2000 DB 20 -3 4 293
2022301N12295 2022 79 NA CS LISA 2022-10-28 03:00:00 NR 11.8000 -65.4000 PROVISIONAL 149 145 P_____________ AL152022 11.8000 -65.4000 DB 20 -3 4 297
2022301N12295 2022 79 NA CS LISA 2022-10-28 06:00:00 NR 11.9000 -65.6000 PROVISIONAL 152 147 O_____________ nhc_working_bt AL152022 11.9000 -65.6000 DB 20 -3 4 291
2022301N12295 2022 79 NA CS LISA 2022-10-28 09:00:00 NR 11.9424 -65.7851 PROVISIONAL 147 147 P_____________ AL152022 11.9424 -65.7851 DB 20 -3 4 284
2022301N12295 2022 79 NA CS LISA 2022-10-28 12:00:00 NR 12.0000 -66.0000 PROVISIONAL 156 156 O_____________ nhc_working_bt AL152022 12.0000 -66.0000 DB 20 1009 -3 1010 150 100 5 289
2022301N12295 2022 79 NA CS LISA 2022-10-28 15:00:00 NR 12.1125 -66.2850 PROVISIONAL 167 167 P_____________ AL152022 12.1125 -66.2850 DB 20 1009 -3 1010 145 100 7 297
2022301N12295 2022 79 NA CS LISA 2022-10-28 18:00:00 NR 12.3000 -66.6000 PROVISIONAL 190 190 O_____________ nhc_working_bt AL152022 12.3000 -66.6000 DB 20 1009 -3 1010 140 100 7 310
2022301N12295 2022 79 NA CS LISA 2022-10-28 21:00:00 NR 12.5923 -66.8625 PROVISIONAL 223 223 P_____________ AL152022 12.5923 -66.8625 DB 20 1009 -3 1010 140 100 8 316
2022301N12295 2022 79 NA CS LISA 2022-10-29 00:00:00 NR 12.9000 -67.2000 PROVISIONAL 230 224 O_____________ nhc_working_bt AL152022 12.9000 -67.2000 DB 20 1009 -3 1010 140 100 10 302
2022301N12295 2022 79 NA CS LISA 2022-10-29 03:00:00 NR 13.1226 -67.7200 PROVISIONAL 224 215 P_____________ AL152022 13.1226 -67.7200 DB 20 1009 -3 1010 140 100 11 290
2022301N12295 2022 79 NA CS LISA 2022-10-29 06:00:00 NR 13.3000 -68.3000 PROVISIONAL 218 188 O_____________ nhc_working_bt AL152022 13.3000 -68.3000 DB 20 1009 -3 1010 140 100 11 286
2022301N12295 2022 79 NA CS LISA 2022-10-29 09:00:00 NR 13.4350 -68.8451 PROVISIONAL 188 174 P_____________ AL152022 13.4350 -68.8451 DB 20 1009 -3 1010 140 100 10 287
2022301N12295 2022 79 NA CS LISA 2022-10-29 12:00:00 NR 13.6000 -69.3000 PROVISIONAL 180 176 O_____________ nhc_working_bt AL152022 13.6000 -69.3000 DB 20 1009 -3 1010 140 100 9 302
2022301N12295 2022 79 NA CS LISA 2022-10-29 15:00:00 NR 13.8923 -69.5875 PROVISIONAL 204 204 P_____________ AL152022 13.8923 -69.5875 DB 20 1008 -3 1009 140 95 8 321
2022301N12295 2022 79 NA CS LISA 2022-10-29 18:00:00 NR 14.2000 -69.8000 PROVISIONAL 235 235 O_____________ nhc_working_bt AL152022 14.2000 -69.8000 DB 20 1007 -3 1009 140 90 7 320
2022301N12295 2022 79 NA CS LISA 2022-10-29 21:00:00 NR 14.4074 -70.0277 PROVISIONAL 257 257 P_____________ AL152022 14.4074 -70.0277 DB 20 1007 -3 1009 140 90 6 310
2022301N12295 2022 79 NA CS LISA 2022-10-30 00:00:00 NR 14.6000 -70.3000 PROVISIONAL 278 273 O_____________ nhc_working_bt AL152022 14.6000 -70.3000 DB 20 1007 -3 1010 140 90 8 306
2022301N12295 2022 79 NA CS LISA 2022-10-30 03:00:00 NR 14.8499 -70.6550 PROVISIONAL 282 281 P_____________ AL152022 14.8499 -70.6550 DB 22 1007 -3 1010 140 90 9 303
2022301N12295 2022 79 NA CS LISA 2022-10-30 06:00:00 NR 15.1000 -71.1000 PROVISIONAL 281 257 O_____________ nhc_working_bt AL152022 15.1000 -71.1000 DB 25 1007 -3 1010 140 90 11 297
2022301N12295 2022 79 NA CS LISA 2022-10-30 09:00:00 NR 15.3225 -71.6275 PROVISIONAL 258 243 P_____________ AL152022 15.3225 -71.6275 DB 27 1007 -3 1010 140 85 11 291
2022301N12295 2022 79 NA CS LISA 2022-10-30 12:00:00 NR 15.5000 -72.2000 PROVISIONAL 250 247 O_____________ nhc_working_bt AL152022 15.5000 -72.2000 DB 30 1007 -3 1010 140 80 40 11 286
2022301N12295 2022 79 NA CS LISA 2022-10-30 15:00:00 NR 15.6299 -72.7500 PROVISIONAL 269 262 P_____________ AL152022 15.6299 -72.7500 DB 32 1006 -3 1009 150 75 11 281
2022301N12295 2022 79 NA CS LISA 2022-10-30 18:00:00 DS 15.7000 -73.3000 PROVISIONAL 262 257 O_____________ nhc_working_bt AL152022 15.7000 -73.3000 LO 35 1005 -3 100 50 1009 160 70 45 11 274
2022301N12295 2022 79 NA CS LISA 2022-10-30 21:00:00 DS 15.7013 -73.8514 PROVISIONAL 257 257 P_____________ AL152022 15.7224 -73.8501 LO 35 1005 -3 100 50 1008 160 70 11 270
2022301N12295 2022 79 NA CS LISA 2022-10-31 00:00:00 DS 15.7000 -74.4000 PROVISIONAL 262 262 O_____________ nhc_working_bt AL152022 15.7000 -74.4000 LO 35 1005 -3 100 50 1008 160 70 45 11 272
2022301N12295 2022 79 NA CS LISA 2022-10-31 03:00:00 DS 15.7340 -74.9423 PROVISIONAL 278 257 P_____________ AL152022 15.6573 -74.9425 LO 35 1005 -3 100 75 1008 160 70 11 272
2022301N12295 2022 79 NA CS LISA 2022-10-31 06:00:00 DS 15.7333 -75.5000 PROVISIONAL 257 247 O_____________ nhc_working_bt AL152022 15.6000 -75.5000 LO 35 1005 -3 100 50 100 1009 160 70 45 11 264
2022301N12295 2022 79 NA CS LISA 2022-10-31 09:00:00 DS 15.6241 -76.1002 PROVISIONAL 257 250 P_____________ AL152022 15.5425 -76.1000 LO 35 1004 -3 95 60 1009 160 70 12 259
2022301N12295 2022 79 NA CS LISA 2022-10-31 12:00:00 TS 15.5000 -76.7000 PROVISIONAL 251 246 O_____________ nhc_working_bt AL152022 15.5000 -76.7000 TS 35 1003 0 90 70 1009 160 70 45 12 75 11 261
2022301N12295 2022 79 NA CS LISA 2022-10-31 15:00:00 TS 15.4415 -77.2650 PROVISIONAL 257 257 P_____________ AL152022 15.4849 -77.2650 TS 37 1002 0 90 70 1009 170 70 12 75 11 266
2022301N12295 2022 79 NA CS LISA 2022-10-31 18:00:00 TS 15.4333 -77.8000 PROVISIONAL 265 265 O_____________ nhc_working_bt AL152022 15.5000 -77.8000 TS 40 1002 0 90 70 1009 180 70 50 12 75 10 271
2022301N12295 2022 79 NA CS LISA 2022-10-31 21:00:00 TS 15.4506 -78.3001 PROVISIONAL 272 272 P_____________ AL152022 15.5273 -78.3001 TS 40 1002 0 90 70 1009 180 70 12 75 10 276
2022301N12295 2022 79 NA CS LISA 2022-11-01 00:00:00 TS 15.5333 -78.8000 PROVISIONAL 293 287 O_____________ nhc_working_bt AL152022 15.6000 -78.8000 TS 40 1002 0 90 70 1009 180 70 50 12 75 10 284
2022301N12295 2022 79 NA CS LISA 2022-11-01 03:00:00 TS 15.7065 -79.3324 PROVISIONAL 295 292 P_____________ AL152022 15.7348 -79.3275 TS 40 1002 0 90 70 1009 180 52 12 82 11 289
2022301N12295 2022 79 NA CS LISA 2022-11-01 06:00:00 TS 15.9000 -79.9000 PROVISIONAL 302 300 O_____________ nhc_working_bt AL152022 15.9000 -79.9000 TS 40 1003 0 90 70 1010 180 35 50 12 90 12 285
2022301N12295 2022 79 NA CS LISA 2022-11-01 09:00:00 TS 16.0165 -80.4969 PROVISIONAL 300 247 P_____________ AL152022 16.0499 -80.5351 TS 42 1002 0 75 65 1010 180 25 12 90 12 281
2022301N12295 2022 79 NA CS LISA 2022-11-01 12:00:00 TS 16.1333 -81.1333 PROVISIONAL 247 201 O_____________ nhc_working_bt AL152022 16.2000 -81.2000 TS 45 1002 0 60 60 20 1010 180 15 50 12 90 13 284
2022301N12295 2022 79 NA CS LISA 2022-11-01 15:00:00 TS 16.3189 -81.7891 PROVISIONAL 201 165 P_____________ AL152022 16.3571 -81.8276 TS 47 1001 0 60 60 20 1010 180 15 12 90 14 286
2022301N12295 2022 79 NA CS LISA 2022-11-01 18:00:00 TS 16.5000 -82.5000 PROVISIONAL 165 134 O_____________ nhc_working_bt AL152022 16.5000 -82.5000 TS 50 1001 0 60 60 20 20 1010 180 15 60 12 90 15 281
2022301N12295 2022 79 NA CS LISA 2022-11-01 21:00:00 TS 16.6050 -83.2978 PROVISIONAL 134 102 P_____________ AL152022 16.6001 -83.2927 TS 55 997 0 60 60 40 20 1010 160 15 12 90 15 277
2022301N12295 2022 79 NA CS LISA 2022-11-02 00:00:00 TS 16.7000 -84.1000 PROVISIONAL 102 95 O_____________ nhc_working_bt AL152022 16.7000 -84.1000 TS 60 993 0 60 60 20 60 20 20 1010 140 15 75 12 90 15 280
2022301N12295 2022 79 NA CS LISA 2022-11-02 03:00:00 TS 16.8572 -84.8298 PROVISIONAL 111 111 P_____________ AL152022 16.8572 -84.8298 TS 60 992 0 60 60 20 60 20 20 1010 140 12 12 90 14 283
2022301N12295 2022 79 NA CS LISA 2022-11-02 06:00:00 TS 17.0000 -85.5000 PROVISIONAL 123 123 O_____________ nhc_working_bt AL152022 17.0000 -85.5000 TS 60 992 0 60 60 20 60 20 20 1011 140 10 75 12 90 45 30 75 13 279
2022301N12295 2022 79 NA CS LISA 2022-11-02 09:00:00 TS 17.0573 -86.1302 PROVISIONAL 135 135 P_____________ AL152022 17.0573 -86.1302 TS 65 990 1 60 60 20 60 20 20 5 5 1012 120 10 12 90 52 30 75 12 275
2022301N12295 2022 79 NA CS LISA 2022-11-02 12:00:00 TS 17.1000 -86.7000 PROVISIONAL 147 108 O_____________ nhc_working_bt AL152022 17.1000 -86.7000 HU 70 988 1 60 60 20 60 20 20 11 11 1013 100 10 85 12 90 60 30 75 11 277
2022301N12295 2022 79 NA CS LISA 2022-11-02 15:00:00 TS 17.1923 -87.2225 PROVISIONAL 108 57 P_____________ AL152022 17.1923 -87.2225 HU 70 988 1 60 60 25 60 22 22 13 13 1013 100 12 12 90 60 30 75 10 282
2022301N12295 2022 79 NA CS LISA 2022-11-02 18:00:00 TS 17.3000 -87.7000 PROVISIONAL 57 15 O_____________ nhc_working_bt AL152022 17.3000 -87.7000 HU 70 988 1 60 60 30 60 25 25 15 15 1013 100 15 85 12 90 60 30 75 9 283
2022301N12295 2022 79 NA CS LISA 2022-11-02 21:00:00 TS 17.3998 -88.1501 PROVISIONAL 10 0 P_____________ AL152022 17.3998 -88.1501 HU 65 989 1 60 60 30 50 25 22 7 7 1013 100 15 12 90 60 30 75 9 283
2022301N12295 2022 79 NA NA LISA 2022-11-03 00:00:00 TS 17.5000 -88.6000 PROVISIONAL 0 0 O_____________ nhc_working_bt AL152022 17.5000 -88.6000 TS 60 991 0 60 60 30 40 25 20 1013 100 15 75 12 90 60 30 75 9 282
2022301N12295 2022 79 NA NA LISA 2022-11-03 03:00:00 TS 17.6000 -89.0975 PROVISIONAL 0 0 P_____________ AL152022 17.5999 -89.0925 TS 52 994 0 45 45 25 35 12 10 1013 100 15 12 75 60 10 282
2022301N12295 2022 79 NA NA LISA 2022-11-03 06:00:00 TS 17.7000 -89.6000 PROVISIONAL 0 0 O_____________ nhc_working_bt AL152022 17.7000 -89.6000 TS 45 998 0 30 30 20 30 1013 100 15 55 12 60 60 9 283
2022301N12295 2022 79 NA NA LISA 2022-11-03 09:00:00 TS 17.8072 -90.0542 PROVISIONAL 0 0 P_____________ AL152022 17.8073 -90.0925 TS 37 1003 0 15 15 10 15 1013 100 15 9 283
2022301N12295 2022 79 NA NA LISA 2022-11-03 12:00:00 TS 17.9000 -90.5333 PROVISIONAL 0 0 O_____________ nhc_working_bt AL152022 17.9000 -90.6000 TD 30 1008 -1 1013 100 15 40 10 279
2022301N12295 2022 79 NA NA LISA 2022-11-03 15:00:00 TS 17.9651 -91.1117 PROVISIONAL 0 0 P_____________ AL152022 17.9650 -91.1500 TD 27 1008 -1 1013 100 15 11 275
2022301N12295 2022 79 NA NA LISA 2022-11-03 18:00:00 TS 18.0000 -91.7000 PROVISIONAL 0 0 O_____________ nhc_working_bt AL152022 18.0000 -91.7000 TD 25 1008 -1 1013 100 15 35 11 271
2022301N12295 2022 79 NA NA LISA 2022-11-03 21:00:00 TS 17.9848 -92.2202 PROVISIONAL 0 0 P_____________ AL152022 17.9849 -92.2152 TD 25 1008 -1 1013 100 22 10 270
2022301N12295 2022 79 NA NA LISA 2022-11-04 00:00:00 TS 18.0000 -92.7000 PROVISIONAL 0 0 O_____________ nhc_working_bt AL152022 18.0000 -92.7000 TD 25 1009 -1 1013 100 30 35 9 278
2022301N12295 2022 79 NA NA LISA 2022-11-04 03:00:00 TS 18.1098 -93.1576 PROVISIONAL 0 0 P_____________ AL152022 18.1198 -93.1575 TD 25 1009 -1 1013 100 30 9 289
2022301N12295 2022 79 NA NA LISA 2022-11-04 06:00:00 TS 18.3000 -93.6000 PROVISIONAL 0 0 O_____________ nhc_working_bt AL152022 18.3000 -93.6000 TD 25 1010 -1 1013 100 30 35 10 298
2022301N12295 2022 79 NA GM LISA 2022-11-04 09:00:00 TS 18.5617 -94.0648 PROVISIONAL 39 39 P_____________ AL152022 18.4850 -94.0650 TD 25 1009 -1 1013 125 30 10 302
2022301N12295 2022 79 NA GM LISA 2022-11-04 12:00:00 TS 18.8333 -94.5000 PROVISIONAL 54 45 O_____________ nhc_working_bt AL152022 18.7000 -94.5000 TD 25 1008 -1 1013 150 30 40 9 301
2022301N12295 2022 79 NA GM LISA 2022-11-04 15:00:00 TS 19.0417 -94.9026 PROVISIONAL 45 45 P_____________ AL152022 18.9650 -94.9024 TD 25 1008 -1 1012 135 35 8 299
2022301N12295 2022 79 NA GM LISA 2022-11-04 18:00:00 TS 19.2000 -95.2000 PROVISIONAL 55 55 O_____________ nhc_working_bt AL152022 19.2000 -95.2000 TD 25 1008 -1 1011 120 40 35 5 301
2022301N12295 2022 79 NA GM LISA 2022-11-04 21:00:00 TS 19.2974 -95.3451 PROVISIONAL 67 64 P_____________ AL152022 19.2924 -95.3452 TD 25 1008 -1 1011 120 40 3 316
2022301N12295 2022 79 NA GM LISA 2022-11-05 00:00:00 TS 19.4000 -95.4000 PROVISIONAL 74 71 O_____________ nhc_working_bt AL152022 19.4000 -95.4000 TD 25 1008 -1 1011 120 40 35 3 335
2022301N12295 2022 79 NA GM LISA 2022-11-05 03:00:00 TS 19.5625 -95.4793 PROVISIONAL 77 77 P_____________ AL152022 19.6550 -95.4873 TD 25 1008 -1 1010 120 40 4 348
2022301N12295 2022 79 NA GM LISA 2022-11-05 06:00:00 TS 19.8286 -95.5000 PROVISIONAL 91 91 O_____________ nhc_working_bt AL152022 20.0000 -95.5000 TD 25 1008 -1 1010 120 40 35 7 7
2022301N12295 2022 79 NA GM LISA 2022-11-05 09:00:00 TS 20.2813 -95.3879 PROVISIONAL 113 113 P_____________ AL152022 20.3901 -95.3879 TD 25 1008 -1 1010 120 40 10 16
2022301N12295 2022 79 NA GM LISA 2022-11-05 12:00:00 TS 20.8000 -95.2000 PROVISIONAL 160 O_____________ nhc_working_bt AL152022 20.8000 -95.2000 TD 25 1008 -1 1011 120 40 35 11 19

IBTrACS Databaseについて

本データベースは、米国NOAAが公開する1842年以降の世界の熱帯低気圧のベストトラックデータアーカイブInternational Best Track Archive for Climate Stewardship (IBTrACS)を、ウェブで閲覧しやすい形式に変換したものです。

最終更新日:2022-11-16